createdAt,value
2022-12-14T00:00:22.399Z,94119.59
2022-12-14T00:02:51.441Z,94122.72
2022-12-14T00:05:19.867Z,94131.81
2022-12-14T00:07:49.030Z,94129.34
2022-12-14T00:10:20.434Z,94117.69
2022-12-14T00:12:48.138Z,94123.19
2022-12-14T00:15:15.908Z,94118.38
2022-12-14T00:17:43.539Z,94111.91
2022-12-14T00:20:13.137Z,94111.78
2022-12-14T00:22:40.794Z,94122.00
2022-12-14T00:25:09.132Z,94127.47
2022-12-14T00:27:36.798Z,94153.03
2022-12-14T00:30:04.788Z,94156.53
2022-12-14T00:32:32.455Z,94148.25
2022-12-14T00:35:02.675Z,94157.19
2022-12-14T00:37:31.649Z,94144.44
2022-12-14T00:39:59.268Z,94148.69
2022-12-14T00:42:26.911Z,94145.25
2022-12-14T00:44:54.566Z,94146.06
2022-12-14T00:47:22.291Z,94138.59
2022-12-14T00:49:49.991Z,94136.41
2022-12-14T00:52:17.622Z,94131.59
2022-12-14T00:54:46.689Z,94131.97
2022-12-14T00:57:14.575Z,94124.28
2022-12-14T00:59:42.258Z,94096.78
2022-12-14T01:02:10.172Z,94123.75
2022-12-14T01:04:38.004Z,94145.34
2022-12-14T01:07:06.974Z,94143.00
2022-12-14T01:09:34.779Z,94151.34
2022-12-14T01:12:03.756Z,94150.81
2022-12-14T01:14:31.435Z,94152.75
2022-12-14T01:16:59.083Z,94156.06
2022-12-14T01:19:26.679Z,94158.06
2022-12-14T01:21:57.014Z,94155.72
2022-12-14T01:24:25.907Z,94153.16
2022-12-14T01:26:53.560Z,94141.50
2022-12-14T01:29:22.593Z,94133.06
2022-12-14T01:31:50.303Z,94137.41
2022-12-14T01:34:20.460Z,94136.41
2022-12-14T01:36:48.134Z,94131.28
2022-12-14T01:39:17.140Z,94126.25
2022-12-14T01:41:46.724Z,94123.03
2022-12-14T01:44:55.531Z,94119.44
2022-12-14T01:47:29.512Z,94129.53
2022-12-14T01:50:04.185Z,94143.00
2022-12-14T01:52:37.739Z,94139.56
2022-12-14T01:55:11.215Z,94129.38
2022-12-14T01:57:43.313Z,94126.75
2022-12-14T02:00:14.356Z,94126.75
2022-12-14T02:02:45.322Z,94129.28
2022-12-14T02:05:15.080Z,94124.81
2022-12-14T02:07:49.020Z,94129.25
2022-12-14T02:10:17.233Z,94122.28
2022-12-14T02:12:50.121Z,94121.06
2022-12-14T02:15:19.751Z,94117.94
2022-12-14T02:17:49.238Z,94107.84
2022-12-14T02:20:17.853Z,94092.25
2022-12-14T02:23:21.214Z,94103.34
2022-12-14T02:26:37.667Z,94108.59
2022-12-14T02:29:34.097Z,94108.16
2022-12-14T02:32:16.490Z,94104.53
2022-12-14T02:34:57.414Z,94101.56
2022-12-14T02:37:34.594Z,94092.38
2022-12-14T02:40:22.008Z,94081.06
2022-12-14T02:42:58.488Z,94094.41
2022-12-14T02:45:36.202Z,94089.97
2022-12-14T02:48:09.686Z,94078.56
2022-12-14T02:50:44.224Z,94073.72
2022-12-14T02:53:21.567Z,94070.25
2022-12-14T02:55:52.443Z,94065.38
2022-12-14T02:58:24.354Z,94055.63
2022-12-14T03:00:55.308Z,94060.16
2022-12-14T03:03:23.157Z,94057.63
2022-12-14T03:05:58.032Z,94062.72
2022-12-14T03:08:28.819Z,94069.28
2022-12-14T03:10:59.951Z,94062.97
2022-12-14T03:13:31.524Z,94049.00
2022-12-14T03:16:05.788Z,94024.16
2022-12-14T03:18:38.482Z,94029.50
2022-12-14T03:21:11.712Z,94037.34
2022-12-14T03:23:42.307Z,94033.56
2022-12-14T03:26:17.138Z,94037.09
2022-12-14T03:28:47.662Z,94027.50
2022-12-14T03:31:23.301Z,94024.97
2022-12-14T03:33:55.679Z,94030.56
2022-12-14T03:36:29.580Z,94029.25
2022-12-14T03:39:01.306Z,94040.41
2022-12-14T03:41:36.597Z,94045.69
2022-12-14T03:44:19.337Z,94039.19
2022-12-14T03:46:57.656Z,94027.78
2022-12-14T03:49:38.858Z,94028.41
2022-12-14T03:52:13.652Z,94039.28
2022-12-14T03:54:50.610Z,94032.94
2022-12-14T03:57:29.485Z,94040.50
2022-12-14T04:00:03.719Z,94044.16
2022-12-14T04:02:41.036Z,94042.69
2022-12-14T04:05:15.107Z,94046.22
2022-12-14T04:07:49.211Z,94043.69
2022-12-14T04:10:37.734Z,94050.56
2022-12-14T04:13:26.391Z,94047.13
2022-12-14T04:16:19.440Z,94042.19
2022-12-14T04:19:00.516Z,94031.22
2022-12-14T04:21:36.909Z,94010.19
2022-12-14T04:24:28.255Z,93999.38
2022-12-14T04:26:59.242Z,93998.69
2022-12-14T04:29:48.389Z,93987.03
2022-12-14T04:32:20.374Z,93982.66
2022-12-14T04:34:53.241Z,93976.84
2022-12-14T04:37:24.675Z,93970.19
2022-12-14T04:39:54.968Z,93969.91
2022-12-14T04:42:28.214Z,93975.72
2022-12-14T04:45:00.624Z,93970.63
2022-12-14T04:47:33.533Z,93979.72
2022-12-14T04:50:07.190Z,93977.59
2022-12-14T04:52:40.710Z,93966.63
2022-12-14T04:55:15.863Z,93967.75
2022-12-14T04:57:50.798Z,93963.44
2022-12-14T05:00:18.838Z,93963.78
2022-12-14T05:03:07.060Z,93958.56
2022-12-14T05:05:45.657Z,93966.59
2022-12-14T05:08:21.697Z,93968.63
2022-12-14T05:11:00.889Z,93964.72
2022-12-14T05:13:48.875Z,93971.88
2022-12-14T05:16:18.312Z,93969.72
2022-12-14T05:18:46.371Z,93969.41
2022-12-14T05:21:35.516Z,93961.69
2022-12-14T05:24:04.786Z,93955.81
2022-12-14T05:26:32.745Z,93958.28
2022-12-14T05:29:00.368Z,93963.00
2022-12-14T05:31:28.034Z,93963.84
2022-12-14T05:33:55.656Z,93960.44
2022-12-14T05:36:24.832Z,93955.88
2022-12-14T05:38:52.533Z,93957.53
2022-12-14T05:41:20.161Z,93957.78
2022-12-14T05:43:49.212Z,93944.06
2022-12-14T05:46:17.017Z,93938.78
2022-12-14T05:48:49.156Z,93938.25
2022-12-14T05:51:17.875Z,93940.94
2022-12-14T05:53:46.911Z,93936.28
2022-12-14T05:56:14.587Z,93935.47
2022-12-14T05:58:42.267Z,93933.09
2022-12-14T06:01:18.496Z,93926.19
2022-12-14T06:03:46.760Z,93924.13
2022-12-14T06:06:15.718Z,93914.88
2022-12-14T06:08:44.901Z,93907.03
2022-12-14T06:11:15.778Z,93900.88
2022-12-14T06:13:44.296Z,93894.25
2022-12-14T06:16:14.174Z,93897.59
2022-12-14T06:18:43.736Z,93910.41
2022-12-14T06:21:11.529Z,93910.00
2022-12-14T06:23:39.211Z,93912.59
2022-12-14T06:26:07.558Z,93911.50
2022-12-14T06:28:36.960Z,93908.16
2022-12-14T06:31:05.845Z,93908.53
2022-12-14T06:33:34.972Z,93895.16
2022-12-14T06:36:03.921Z,93887.50
2022-12-14T06:38:31.573Z,93893.50
2022-12-14T06:40:59.213Z,93898.31
2022-12-14T06:43:27.677Z,93898.53
2022-12-14T06:45:57.438Z,93888.75
2022-12-14T06:48:25.075Z,93881.31
2022-12-14T06:50:52.707Z,93880.50
2022-12-14T06:53:20.320Z,93883.59
2022-12-14T06:55:49.296Z,93879.50
2022-12-14T06:58:17.101Z,93873.22
2022-12-14T07:00:45.089Z,93864.69
2022-12-14T07:03:14.061Z,93868.13
2022-12-14T07:05:45.779Z,93866.31
2022-12-14T07:08:16.444Z,93855.69
2022-12-14T07:10:44.100Z,93870.59
2022-12-14T07:13:11.694Z,93868.13
2022-12-14T07:15:39.511Z,93862.75
2022-12-14T07:18:07.243Z,93860.59
2022-12-14T07:20:36.251Z,93856.06
2022-12-14T07:23:03.949Z,93846.59
2022-12-14T07:25:31.653Z,93842.38
2022-12-14T07:27:59.237Z,93857.50
2022-12-14T07:30:26.915Z,93853.94
2022-12-14T07:32:54.532Z,93856.16
2022-12-14T07:35:22.138Z,93856.50
2022-12-14T07:37:51.843Z,93847.25
2022-12-14T07:40:19.481Z,93844.25
2022-12-14T07:42:49.473Z,93838.03
2022-12-14T07:45:17.148Z,93838.84
2022-12-14T07:47:44.775Z,93840.22
2022-12-14T07:50:12.361Z,93830.31
2022-12-14T07:52:39.943Z,93833.78
2022-12-14T07:55:10.309Z,93838.16
2022-12-14T07:57:38.104Z,93836.66
2022-12-14T08:00:06.637Z,93844.47
2022-12-14T08:02:34.333Z,93837.66
2022-12-14T08:05:02.082Z,93835.16
2022-12-14T08:07:31.072Z,93828.97
2022-12-14T08:09:58.658Z,93825.16
2022-12-14T08:12:27.612Z,93819.00
2022-12-14T08:14:55.223Z,93810.97
2022-12-14T08:17:22.782Z,93813.69
2022-12-14T08:19:50.365Z,93806.81
2022-12-14T08:22:18.044Z,93813.19
2022-12-14T08:24:49.583Z,93806.50
2022-12-14T08:27:17.369Z,93808.38
2022-12-14T08:29:46.345Z,93807.16
2022-12-14T08:32:14.059Z,93786.78
2022-12-14T08:34:41.633Z,93781.41
2022-12-14T08:37:09.259Z,93777.94
2022-12-14T08:39:36.891Z,93784.63
2022-12-14T08:42:04.597Z,93783.19
2022-12-14T08:44:32.244Z,93783.75
2022-12-14T08:47:01.308Z,93793.59
2022-12-14T08:49:32.601Z,93797.13
2022-12-14T08:52:00.559Z,93792.59
2022-12-14T08:54:28.139Z,93797.00
2022-12-14T08:56:55.744Z,93784.97
2022-12-14T08:59:52.153Z,93784.13
2022-12-14T09:02:12.296Z,93763.13
2022-12-14T09:04:39.936Z,93767.25
2022-12-14T09:07:07.543Z,93763.75
2022-12-14T09:09:37.215Z,93761.63
2022-12-14T09:12:06.720Z,93754.41
2022-12-14T09:14:34.466Z,93756.72
2022-12-14T09:17:02.898Z,93756.44
2022-12-14T09:19:31.928Z,93762.75
2022-12-14T09:21:59.553Z,93755.59
2022-12-14T09:24:28.377Z,93748.59
2022-12-14T09:26:56.001Z,93752.69
2022-12-14T09:29:23.621Z,93752.53
2022-12-14T09:31:51.271Z,93752.84
2022-12-14T09:34:19.271Z,93752.50
2022-12-14T09:36:49.137Z,93748.72
2022-12-14T09:39:16.834Z,93754.19
2022-12-14T09:42:01.145Z,93748.66
2022-12-14T09:44:41.796Z,93741.31
2022-12-14T09:47:16.148Z,93730.91
2022-12-14T09:49:48.072Z,93728.38
2022-12-14T09:52:26.209Z,93725.19
2022-12-14T09:54:55.525Z,93720.94
2022-12-14T09:57:30.074Z,93704.72
2022-12-14T09:59:57.805Z,93700.34
2022-12-14T10:02:36.659Z,93681.84
2022-12-14T10:05:20.949Z,93687.84
2022-12-14T10:08:02.713Z,93692.94
2022-12-14T10:10:38.558Z,93682.94
2022-12-14T10:13:18.727Z,93680.19
2022-12-14T10:16:01.093Z,93672.09
2022-12-14T10:19:02.159Z,93660.59
2022-12-14T10:21:42.592Z,93656.72
2022-12-14T10:24:19.306Z,93646.13
2022-12-14T10:26:52.981Z,93643.47
2022-12-14T10:29:32.741Z,93642.81
2022-12-14T10:32:07.776Z,93628.34
2022-12-14T10:34:36.212Z,93620.69
2022-12-14T10:37:13.086Z,93625.09
2022-12-14T10:39:52.117Z,93626.81
2022-12-14T10:42:29.091Z,93626.31
2022-12-14T10:45:39.161Z,93633.56
2022-12-14T10:47:58.423Z,93633.00
2022-12-14T10:50:38.085Z,93642.81
2022-12-14T10:53:12.002Z,93636.06
2022-12-14T10:55:44.041Z,93634.66
2022-12-14T10:58:12.161Z,93628.88
2022-12-14T11:00:39.874Z,93626.00
2022-12-14T11:03:14.942Z,93617.56
2022-12-14T11:05:50.140Z,93618.97
2022-12-14T11:08:40.527Z,93615.31
2022-12-14T11:11:16.997Z,93609.69
2022-12-14T11:13:50.662Z,93601.53
2022-12-14T11:16:26.736Z,93600.94
2022-12-14T11:19:01.677Z,93599.97
2022-12-14T11:21:35.318Z,93615.13
2022-12-14T11:24:03.172Z,93603.81
2022-12-14T11:26:36.454Z,93586.53
2022-12-14T11:29:17.541Z,93579.94
2022-12-14T11:31:47.016Z,93589.97
2022-12-14T11:34:31.023Z,93598.34
2022-12-14T11:37:12.670Z,93600.25
2022-12-14T11:39:41.929Z,93598.31
2022-12-14T11:42:20.322Z,93593.41
2022-12-14T11:44:49.918Z,93579.16
2022-12-14T11:47:19.388Z,93579.94
2022-12-14T11:49:48.878Z,93573.94
2022-12-14T11:52:19.757Z,93561.88
2022-12-14T11:54:51.785Z,93556.78
2022-12-14T11:57:28.850Z,93577.00
2022-12-14T11:59:59.565Z,93580.28
2022-12-14T12:02:34.409Z,93580.91
2022-12-14T12:05:07.721Z,93589.91
2022-12-14T12:07:37.398Z,93598.47
2022-12-14T12:10:18.216Z,93592.22
2022-12-14T12:12:54.544Z,93591.78
2022-12-14T12:15:25.766Z,93586.41
2022-12-14T12:17:56.454Z,93577.47
2022-12-14T12:20:33.279Z,93563.97
2022-12-14T12:23:08.583Z,93555.72
2022-12-14T12:25:38.663Z,93572.66
2022-12-14T12:28:19.550Z,93570.13
2022-12-14T12:30:52.539Z,93565.72
2022-12-14T12:33:29.091Z,93554.56
2022-12-14T12:36:00.912Z,93557.03
2022-12-14T12:38:42.193Z,93550.16
2022-12-14T12:41:24.270Z,93558.53
2022-12-14T12:43:57.544Z,93562.03
2022-12-14T12:46:29.114Z,93544.16
2022-12-14T12:49:05.641Z,93568.03
2022-12-14T12:51:40.376Z,93549.25
2022-12-14T12:54:12.145Z,93553.34
2022-12-14T12:56:48.169Z,93553.94
2022-12-14T12:59:21.778Z,93532.47
2022-12-14T13:01:55.659Z,93562.47
2022-12-14T13:04:32.121Z,93541.22
2022-12-14T13:07:05.203Z,93563.28
2022-12-14T13:09:39.693Z,93570.94
2022-12-14T13:12:14.846Z,93564.09
2022-12-14T13:14:49.832Z,93568.16
2022-12-14T13:17:30.370Z,93586.28
2022-12-14T13:20:00.609Z,93584.63
2022-12-14T13:22:30.878Z,93583.72
2022-12-14T13:25:06.413Z,93596.25
2022-12-14T13:27:52.505Z,93596.38
2022-12-14T13:30:31.358Z,93582.78
2022-12-14T13:33:21.402Z,93594.53
2022-12-14T13:36:10.835Z,93595.22
2022-12-14T13:39:00.630Z,93602.75
2022-12-14T13:41:37.384Z,93614.88
2022-12-14T13:44:24.983Z,93614.31
2022-12-14T13:47:02.812Z,93614.69
2022-12-14T13:49:31.238Z,93610.28
2022-12-14T13:51:59.107Z,93610.34
2022-12-14T13:54:31.192Z,93608.75
2022-12-14T13:57:05.306Z,93603.09
2022-12-14T13:59:38.478Z,93608.75
2022-12-14T14:02:30.398Z,93612.88
2022-12-14T14:05:31.704Z,93614.63
2022-12-14T14:08:02.707Z,93611.97
2022-12-14T14:10:33.928Z,93604.25
2022-12-14T14:13:03.059Z,93603.53
2022-12-14T14:15:51.990Z,93605.94
2022-12-14T14:18:31.318Z,93605.81
2022-12-14T14:21:31.270Z,93611.94
2022-12-14T14:24:01.332Z,93624.25
2022-12-14T14:26:31.227Z,93597.94
2022-12-14T14:29:21.248Z,93582.00
2022-12-14T14:31:52.704Z,93587.22
2022-12-14T14:34:33.650Z,93583.59
2022-12-14T14:37:13.607Z,93594.72
2022-12-14T14:40:07.150Z,93600.75
2022-12-14T14:42:34.661Z,93597.13
2022-12-14T14:45:05.213Z,93596.25
2022-12-14T14:47:35.956Z,93601.28
2022-12-14T14:50:09.202Z,93606.28
2022-12-14T14:53:12.305Z,93599.19
2022-12-14T14:56:06.991Z,93606.91
2022-12-14T14:58:37.191Z,93613.41
2022-12-14T15:01:21.304Z,93624.13
2022-12-14T15:03:54.168Z,93623.88
2022-12-14T15:06:27.422Z,93612.00
2022-12-14T15:09:00.768Z,93606.69
2022-12-14T15:11:32.454Z,93606.22
2022-12-14T15:14:03.781Z,93611.88
2022-12-14T15:16:33.648Z,93607.47
2022-12-14T15:19:35.924Z,93607.13
2022-12-14T15:22:07.608Z,93608.50
2022-12-14T15:24:39.322Z,93604.69
2022-12-14T15:27:19.098Z,93610.59
2022-12-14T15:29:49.426Z,93611.16
2022-12-14T15:32:19.455Z,93602.91
2022-12-14T15:34:53.117Z,93617.19
2022-12-14T15:37:28.940Z,93613.84
2022-12-14T15:40:05.520Z,93621.31
2022-12-14T15:42:33.205Z,93618.66
2022-12-14T15:45:13.601Z,93621.66
2022-12-14T15:47:41.201Z,93621.91
2022-12-14T15:50:21.935Z,93635.19
2022-12-14T15:52:53.494Z,93635.84
2022-12-14T15:55:30.913Z,93637.94
2022-12-14T15:58:00.998Z,93640.97
2022-12-14T16:00:28.968Z,93640.94
2022-12-14T16:02:56.884Z,93637.91
2022-12-14T16:05:24.723Z,93643.34
2022-12-14T16:07:57.601Z,93640.91
2022-12-14T16:10:28.311Z,93642.78
2022-12-14T16:13:01.391Z,93651.72
2022-12-14T16:15:30.256Z,93655.22
2022-12-14T16:18:02.705Z,93663.63
2022-12-14T16:20:32.853Z,93659.47
2022-12-14T16:23:05.834Z,93670.91
2022-12-14T16:25:35.673Z,93673.13
2022-12-14T16:28:22.169Z,93678.34
2022-12-14T16:30:56.116Z,93686.50
2022-12-14T16:33:25.493Z,93691.88
2022-12-14T16:36:02.398Z,93688.50
2022-12-14T16:38:32.083Z,93689.88
2022-12-14T16:41:01.765Z,93695.56
2022-12-14T16:43:33.871Z,93702.06
2022-12-14T16:46:17.384Z,93706.69
2022-12-14T16:48:50.101Z,93704.47
2022-12-14T16:54:29.152Z,93717.41
2022-12-14T16:57:01.227Z,93712.81
2022-12-14T16:59:35.872Z,93720.63
2022-12-14T17:02:04.090Z,93721.44
2022-12-14T17:04:36.648Z,93714.22
2022-12-14T17:07:04.911Z,93730.59
2022-12-14T17:09:35.419Z,93724.63
2022-12-14T17:12:12.332Z,93736.97
2022-12-14T17:14:43.519Z,93732.91
2022-12-14T17:17:20.451Z,93741.41
2022-12-14T17:19:48.194Z,93743.66
2022-12-14T17:22:27.695Z,93741.78
2022-12-14T17:24:57.156Z,93745.56
2022-12-14T17:27:26.645Z,93750.44
2022-12-14T17:29:56.975Z,93751.38
2022-12-14T17:32:28.789Z,93763.25
2022-12-14T17:34:56.429Z,93767.09
2022-12-14T17:37:27.660Z,93772.00
2022-12-14T17:40:00.712Z,93764.88
2022-12-14T17:42:28.376Z,93763.97
2022-12-14T17:44:57.814Z,93767.66
2022-12-14T17:47:26.144Z,93763.72
2022-12-14T17:49:53.810Z,93773.50
2022-12-14T17:52:24.971Z,93778.41
2022-12-14T17:54:52.668Z,93779.09
2022-12-14T17:57:23.598Z,93786.06
2022-12-14T18:00:13.082Z,93801.31
2022-12-14T18:02:41.626Z,93800.50
2022-12-14T18:05:22.912Z,93798.41
2022-12-14T18:07:50.507Z,93803.19
2022-12-14T18:10:19.424Z,93807.50
2022-12-14T18:12:48.491Z,93809.69
2022-12-14T18:15:19.365Z,93806.03
2022-12-14T18:17:49.287Z,93816.28
2022-12-14T18:20:17.493Z,93811.31
2022-12-14T18:22:49.736Z,93813.53
2022-12-14T18:25:31.759Z,93820.97
2022-12-14T18:28:01.735Z,93819.47
2022-12-14T18:30:36.810Z,93819.22
2022-12-14T18:33:07.712Z,93819.34
2022-12-14T18:35:36.299Z,93827.84
2022-12-14T18:38:06.700Z,93842.13
2022-12-14T18:40:34.727Z,93845.22
2022-12-14T18:43:04.381Z,93855.25
2022-12-14T18:45:34.858Z,93850.72
2022-12-14T18:48:05.402Z,93861.75
2022-12-14T18:50:34.602Z,93867.44
2022-12-14T18:53:05.901Z,93874.97
2022-12-14T18:55:35.074Z,93871.91
2022-12-14T18:58:04.526Z,93868.06
2022-12-14T19:00:34.098Z,93875.06
2022-12-14T19:03:03.306Z,93873.41
2022-12-14T19:05:31.808Z,93885.63
2022-12-14T19:08:00.511Z,93895.72
2022-12-14T19:10:30.908Z,93878.50
2022-12-14T19:12:59.462Z,93890.78
2022-12-14T19:15:30.207Z,93888.31
2022-12-14T19:17:57.937Z,93886.22
2022-12-14T19:20:26.430Z,93880.59
2022-12-14T19:22:54.680Z,93880.34
2022-12-14T19:25:23.437Z,93893.88
2022-12-14T19:30:43.953Z,93897.16
2022-12-14T19:33:11.647Z,93890.34
2022-12-14T19:35:41.346Z,93890.59
2022-12-14T19:38:13.763Z,93882.78
2022-12-14T19:40:42.232Z,93883.94
2022-12-14T19:43:10.056Z,93893.47
2022-12-14T19:45:39.507Z,93894.13
2022-12-14T19:48:12.945Z,93897.00
2022-12-14T19:50:41.089Z,93904.03
2022-12-14T19:53:08.793Z,93889.59
2022-12-14T19:55:36.751Z,93894.91
2022-12-14T19:58:04.437Z,93899.66
2022-12-14T20:00:32.034Z,93907.25
2022-12-14T20:02:59.853Z,93904.31
2022-12-14T20:05:28.957Z,93903.38
2022-12-14T20:07:56.570Z,93907.28
2022-12-14T20:10:24.252Z,93913.59
2022-12-14T20:12:51.910Z,93914.88
2022-12-14T20:15:19.590Z,93918.97
2022-12-14T20:17:47.308Z,93929.41
2022-12-14T20:20:15.085Z,93928.06
2022-12-14T20:22:44.045Z,93930.00
2022-12-14T20:25:11.642Z,93930.88
2022-12-14T20:27:40.925Z,93927.63
2022-12-14T20:30:10.240Z,93925.63
2022-12-14T20:32:39.892Z,93929.53
2022-12-14T20:35:09.910Z,93929.59
2022-12-14T20:37:37.514Z,93944.66
2022-12-14T20:40:10.558Z,93941.38
2022-12-14T20:42:38.360Z,93942.13
2022-12-14T20:45:07.744Z,93931.22
2022-12-14T20:47:35.880Z,93932.34
2022-12-14T20:50:03.595Z,93938.00
2022-12-14T20:52:31.215Z,93948.47
2022-12-14T20:54:58.979Z,93958.88
2022-12-14T20:57:28.392Z,93965.25
2022-12-14T20:59:59.263Z,93962.97
2022-12-14T21:02:27.310Z,93959.19
2022-12-14T21:04:55.118Z,93964.41
2022-12-14T21:07:26.137Z,93956.03
2022-12-14T21:09:54.373Z,93964.75
2022-12-14T21:12:21.037Z,93974.28
2022-12-14T21:14:53.041Z,93974.38
2022-12-14T21:17:21.787Z,93977.66
2022-12-14T21:19:49.458Z,93985.53
2022-12-14T21:22:19.532Z,93981.25
2022-12-14T21:25:07.464Z,93980.31
2022-12-14T21:27:38.126Z,93982.88
2022-12-14T21:30:10.487Z,93981.66
2022-12-14T21:32:38.802Z,93981.63
2022-12-14T21:35:07.475Z,93980.09
2022-12-14T21:37:35.291Z,93977.16
2022-12-14T21:40:03.857Z,93981.56
2022-12-14T21:42:30.629Z,93972.34
2022-12-14T21:44:58.226Z,93974.31
2022-12-14T21:47:29.505Z,93976.88
2022-12-14T21:50:01.449Z,93976.03
2022-12-14T21:52:29.321Z,93980.84
2022-12-14T21:54:58.874Z,93980.88
2022-12-14T21:57:50.319Z,93990.28
2022-12-14T22:00:19.339Z,93988.75
2022-12-14T22:02:48.510Z,93998.16
2022-12-14T22:05:17.714Z,93998.00
2022-12-14T22:07:47.905Z,94007.94
2022-12-14T22:10:19.894Z,94015.94
2022-12-14T22:12:50.641Z,94022.91
2022-12-14T22:15:18.235Z,94025.16
2022-12-14T22:17:45.995Z,94024.31
2022-12-14T22:20:15.495Z,94019.72
2022-12-14T22:22:43.098Z,94010.94
2022-12-14T22:25:10.700Z,94004.38
2022-12-14T22:27:40.000Z,94006.41
2022-12-14T22:30:09.246Z,94016.34
2022-12-14T22:32:36.911Z,94022.50
2022-12-14T22:35:05.320Z,94020.97
2022-12-14T22:37:34.238Z,94027.41
2022-12-14T22:40:01.931Z,94027.63
2022-12-14T22:42:31.770Z,94027.03
2022-12-14T22:44:59.389Z,94026.31
2022-12-14T22:47:27.109Z,94033.38
2022-12-14T22:49:54.771Z,94030.91
2022-12-14T22:52:25.012Z,94029.25
2022-12-14T22:54:54.494Z,94032.84
2022-12-14T22:57:22.930Z,94032.97
2022-12-14T22:59:57.251Z,94026.22
2022-12-14T23:02:25.124Z,94023.75
2022-12-14T23:04:53.341Z,94016.91
2022-12-14T23:07:21.019Z,94027.25
2022-12-14T23:10:06.166Z,94032.44
2022-12-14T23:12:52.663Z,94032.66
2022-12-14T23:15:38.046Z,94025.19
2022-12-14T23:18:25.463Z,94027.03
2022-12-14T23:21:11.387Z,94030.41
2022-12-14T23:23:57.187Z,94036.34
2022-12-14T23:26:42.712Z,94041.66
2022-12-14T23:29:29.459Z,94039.09
2022-12-14T23:32:14.739Z,94040.75
2022-12-14T23:35:00.135Z,94049.47
2022-12-14T23:37:45.243Z,94057.91
2022-12-14T23:40:30.734Z,94037.47
2022-12-14T23:43:16.281Z,94052.72
2022-12-14T23:46:02.822Z,94066.41
2022-12-14T23:48:48.113Z,94058.75
2022-12-14T23:51:33.482Z,94056.19
2022-12-14T23:54:19.017Z,94053.63
2022-12-14T23:57:04.298Z,94063.25
2022-12-14T23:59:49.947Z,94071.84
